Time;durP1;ratioP1;P1;durP2;ratioP2;P2;SDS_P1;SDS_P2;PMS_P1;PMS_P2;Temp;Humidity;BMP_temperature;BMP_pressure;BME280_temperature;BME280_humidity;BME280_pressure;Samples;Min_cycle;Max_cycle;Signal;HPM_P1;HPM_P2
2024/01/17 00:01:58;;;;;;;7.07;2.10;;;-0.40;99.90;;;;;;5018233;28;20042;-75
2024/01/17 00:04:24;;;;;;;4.80;2.72;;;-0.40;99.90;;;;;;5028674;28;20053;-75
2024/01/17 00:06:50;;;;;;;4.85;3.35;;;-0.50;99.90;;;;;;5041562;28;20049;-75
2024/01/17 00:09:18;;;;;;;5.05;2.65;;;-0.40;99.90;;;;;;5023506;28;20128;-75
2024/01/17 00:11:44;;;;;;;5.22;2.42;;;-0.50;99.90;;;;;;5023842;28;20463;-75
2024/01/17 00:14:10;;;;;;;4.28;3.60;;;-0.40;99.90;;;;;;5023814;28;20047;-75
2024/01/17 00:16:37;;;;;;;6.10;2.60;;;-0.40;99.90;;;;;;5022723;28;20041;-75
2024/01/17 00:19:03;;;;;;;13.27;2.67;;;-0.50;99.90;;;;;;5024050;28;20068;-75
2024/01/17 00:21:28;;;;;;;9.20;2.17;;;-0.50;99.90;;;;;;5018153;28;20034;-75
2024/01/17 00:23:54;;;;;;;11.48;2.65;;;-0.40;99.90;;;;;;5007208;28;20064;-75
2024/01/17 00:26:20;;;;;;;7.22;2.42;;;-0.50;99.90;;;;;;5023075;28;20049;-75
2024/01/17 00:28:46;;;;;;;7.18;3.42;;;-0.50;99.90;;;;;;5022546;28;20087;-75
2024/01/17 00:31:12;;;;;;;2.58;2.03;;;-0.40;99.90;;;;;;5023028;28;20100;-75
2024/01/17 00:33:38;;;;;;;6.93;2.90;;;-0.50;99.90;;;;;;5021898;28;20120;-75
2024/01/17 00:36:04;;;;;;;5.82;3.13;;;-0.50;99.90;;;;;;5003638;28;20105;-75
2024/01/17 00:38:31;;;;;;;5.70;2.38;;;-0.50;99.90;;;;;;4998755;28;20469;-75
2024/01/17 00:40:57;;;;;;;6.28;2.63;;;-0.40;99.90;;;;;;5034009;28;20060;-75
2024/01/17 00:43:22;;;;;;;4.43;3.60;;;-0.50;99.90;;;;;;5017442;28;20065;-75
2024/01/17 00:45:48;;;;;;;2.83;2.63;;;-0.40;99.90;;;;;;5020407;28;20053;-75
2024/01/17 00:48:14;;;;;;;5.15;2.80;;;-0.40;99.90;;;;;;5018450;28;20037;-75
2024/01/17 00:50:40;;;;;;;3.95;2.80;;;-0.40;99.90;;;;;;5017023;28;20072;-75
2024/01/17 00:53:06;;;;;;;11.02;4.35;;;-0.40;99.90;;;;;;5035337;28;20037;-75
2024/01/17 00:55:32;;;;;;;8.50;4.57;;;-0.60;99.90;;;;;;5031835;28;20123;-75
2024/01/17 00:57:58;;;;;;;11.88;2.92;;;-0.60;99.90;;;;;;5000946;28;20041;-75
2024/01/17 01:00:23;;;;;;;5.40;2.83;;;-0.60;99.90;;;;;;5000619;28;20473;-75
2024/01/17 01:02:51;;;;;;;3.45;3.15;;;-0.70;99.90;;;;;;5000835;28;20044;-75
2024/01/17 01:05:17;;;;;;;4.38;2.35;;;-0.70;99.90;;;;;;5002004;28;20542;-75
2024/01/17 01:07:44;;;;;;;2.55;2.33;;;-0.70;99.90;;;;;;5012924;28;20042;-75
2024/01/17 01:10:09;;;;;;;10.55;3.60;;;-0.70;99.90;;;;;;5032934;28;20049;-75
2024/01/17 01:12:35;;;;;;;6.43;2.58;;;-0.70;99.90;;;;;;5016090;28;20132;-75
2024/01/17 01:15:01;;;;;;;4.43;3.05;;;-0.70;99.90;;;;;;5031476;28;20512;-75
2024/01/17 01:17:27;;;;;;;3.92;2.40;;;-0.80;99.90;;;;;;5012710;28;20197;-75
2024/01/17 01:19:55;;;;;;;2.88;2.22;;;-0.70;99.90;;;;;;5015329;28;20047;-75
2024/01/17 01:22:21;;;;;;;12.27;2.28;;;-0.70;99.90;;;;;;5033738;28;20571;-75
2024/01/17 01:24:47;;;;;;;5.75;3.70;;;-0.70;99.90;;;;;;4997157;28;20108;-75
2024/01/17 01:27:12;;;;;;;3.25;1.60;;;-0.70;99.90;;;;;;4999476;28;20041;-75
2024/01/17 01:29:38;;;;;;;6.45;3.17;;;-0.60;99.90;;;;;;5015084;28;20037;-75
2024/01/17 01:32:04;;;;;;;6.75;3.10;;;-0.70;99.90;;;;;;4985228;28;20067;-75
2024/01/17 01:34:30;;;;;;;7.10;3.92;;;-0.60;99.90;;;;;;4999079;28;20042;-75
2024/01/17 01:36:55;;;;;;;4.32;1.83;;;-0.60;99.90;;;;;;5018146;28;20088;-74
2024/01/17 01:39:21;;;;;;;7.38;4.05;;;-0.60;99.90;;;;;;4999779;28;20041;-75
2024/01/17 01:41:47;;;;;;;5.25;3.10;;;-0.60;99.90;;;;;;5004481;28;20041;-75
2024/01/17 01:44:12;;;;;;;5.50;3.53;;;-0.60;99.90;;;;;;5022233;28;20041;-75
2024/01/17 01:46:39;;;;;;;3.40;3.08;;;-0.60;99.90;;;;;;5020378;28;20053;-74
2024/01/17 01:49:04;;;;;;;3.40;2.63;;;-0.60;99.90;;;;;;5004809;28;20045;-74
2024/01/17 01:51:30;;;;;;;6.90;3.70;;;-0.60;99.90;;;;;;5003072;28;20049;-75
2024/01/17 01:54:03;;;;;;;8.93;3.83;;;-0.60;99.90;;;;;;5005782;28;20033;-75
2024/01/17 01:56:32;;;;;;;4.80;2.60;;;-0.60;99.90;;;;;;5037810;28;20132;-75
2024/01/17 01:59:00;;;;;;;12.80;4.25;;;-0.70;99.90;;;;;;5033477;28;20057;-75
2024/01/17 02:01:26;;;;;;;4.97;3.90;;;-0.70;99.90;;;;;;5021390;28;20056;-74
2024/01/17 02:03:54;;;;;;;3.35;3.03;;;-0.80;99.90;;;;;;5020266;28;20049;-74
2024/01/17 02:06:22;;;;;;;7.60;3.75;;;-0.70;99.90;;;;;;5005596;28;20412;-74
2024/01/17 02:08:50;;;;;;;3.58;2.47;;;-0.80;99.90;;;;;;5018509;28;20430;-74
2024/01/17 02:11:18;;;;;;;5.65;3.10;;;-0.80;99.90;;;;;;4998295;28;20048;-75
2024/01/17 02:13:44;;;;;;;6.45;4.72;;;-0.90;99.90;;;;;;5037494;28;20041;-74
2024/01/17 02:16:10;;;;;;;13.88;3.65;;;-0.80;99.90;;;;;;5037609;28;20077;-74
2024/01/17 02:18:37;;;;;;;5.70;3.28;;;-0.90;99.90;;;;;;5022242;28;20122;-74
2024/01/17 02:21:04;;;;;;;5.55;4.20;;;-0.90;99.90;;;;;;5003911;28;20034;-75
2024/01/17 02:23:30;;;;;;;11.88;4.30;;;-0.90;99.90;;;;;;5018600;28;20057;-74
2024/01/17 02:25:57;;;;;;;10.15;3.67;;;-0.80;99.90;;;;;;5033975;28;20041;-75
2024/01/17 02:28:25;;;;;;;6.07;3.03;;;-0.90;99.90;;;;;;5021983;28;20110;-75
2024/01/17 02:30:51;;;;;;;4.28;2.85;;;-0.90;99.90;;;;;;5021104;28;20038;-74
2024/01/17 02:33:18;;;;;;;7.10;3.90;;;-0.80;99.90;;;;;;5002056;28;20045;-75
2024/01/17 02:35:44;;;;;;;10.00;4.55;;;-0.80;99.90;;;;;;5015829;28;20485;-74
2024/01/17 02:38:10;;;;;;;12.32;5.18;;;-0.80;99.90;;;;;;5008664;28;20060;-74
2024/01/17 02:40:35;;;;;;;10.02;3.58;;;-0.80;99.90;;;;;;5018512;28;20045;-74
2024/01/17 02:43:01;;;;;;;10.73;4.32;;;-0.90;99.90;;;;;;4998338;28;20049;-75
2024/01/17 02:45:27;;;;;;;8.18;4.18;;;-0.80;99.90;;;;;;4994716;28;20068;-74
2024/01/17 02:47:53;;;;;;;14.45;4.20;;;-0.90;99.90;;;;;;5032476;28;20113;-75
2024/01/17 02:50:18;;;;;;;7.65;3.33;;;-0.80;99.90;;;;;;5011114;28;20046;-74
2024/01/17 02:52:44;;;;;;;10.23;3.72;;;-0.90;99.90;;;;;;5000972;28;20523;-75
2024/01/17 02:55:11;;;;;;;8.52;3.35;;;-0.90;99.90;;;;;;5014290;28;20038;-74
2024/01/17 02:57:38;;;;;;;7.93;4.15;;;-0.90;99.90;;;;;;5000882;28;20056;-75
2024/01/17 03:00:09;;;;;;;5.15;4.15;;;-0.80;99.90;;;;;;5015557;28;20065;-74
2024/01/17 03:02:35;;;;;;;10.50;4.40;;;-0.90;99.90;;;;;;5016916;28;20045;-75
2024/01/17 03:05:01;;;;;;;11.23;3.30;;;-0.90;99.90;;;;;;4996536;28;20489;-75
2024/01/17 03:07:27;;;;;;;6.20;4.70;;;-0.90;99.90;;;;;;4997605;28;20444;-74
2024/01/17 03:09:53;;;;;;;7.80;4.15;;;-0.90;99.90;;;;;;4997010;28;20045;-74
2024/01/17 03:12:20;;;;;;;5.70;3.67;;;-0.90;99.90;;;;;;5031006;28;20041;-75
2024/01/17 03:14:46;;;;;;;17.30;3.50;;;-1.00;99.90;;;;;;5018660;28;20048;-74
2024/01/17 03:17:14;;;;;;;5.35;3.42;;;-1.00;99.90;;;;;;5000240;28;20037;-75
2024/01/17 03:19:40;;;;;;;9.98;4.35;;;-1.00;99.90;;;;;;4995723;28;20053;-75
2024/01/17 03:22:05;;;;;;;8.00;5.22;;;-1.00;99.90;;;;;;5004325;28;20516;-74
2024/01/17 03:24:31;;;;;;;7.45;5.15;;;-1.00;99.90;;;;;;5003534;28;20057;-75
2024/01/17 03:26:57;;;;;;;9.13;4.80;;;-1.10;99.90;;;;;;5016716;28;20046;-75
2024/01/17 03:29:22;;;;;;;7.60;4.25;;;-1.10;99.90;;;;;;5019618;28;20099;-74
2024/01/17 03:31:48;;;;;;;7.68;3.97;;;-1.10;99.90;;;;;;5002794;28;20127;-75
2024/01/17 03:34:14;;;;;;;10.50;5.30;;;-1.10;99.90;;;;;;4992960;28;20132;-74
2024/01/17 03:36:39;;;;;;;10.00;4.40;;;-1.20;99.90;;;;;;4998546;28;20045;-75
2024/01/17 03:39:05;;;;;;;11.20;3.88;;;-1.10;99.90;;;;;;5013229;28;20053;-75
2024/01/17 03:41:31;;;;;;;8.75;4.97;;;-1.20;99.90;;;;;;5034165;28;20560;-75
2024/01/17 03:43:58;;;;;;;6.90;3.75;;;-1.20;99.90;;;;;;5016408;28;20057;-75
2024/01/17 03:46:24;;;;;;;6.22;3.42;;;-1.20;99.90;;;;;;5022716;28;20072;-74
2024/01/17 03:48:50;;;;;;;7.57;3.60;;;-1.20;99.90;;;;;;5001096;28;20045;-74
2024/01/17 03:51:16;;;;;;;11.57;5.20;;;-1.20;99.90;;;;;;5001543;28;20045;-75
2024/01/17 03:53:42;;;;;;;5.47;4.32;;;-1.30;99.90;;;;;;5019209;28;20067;-74
2024/01/17 03:56:07;;;;;;;9.60;5.20;;;-1.20;99.90;;;;;;4999495;28;20045;-74
2024/01/17 03:58:33;;;;;;;6.28;3.22;;;-1.20;99.90;;;;;;5033105;28;20045;-74
2024/01/17 04:01:02;;;;;;;9.38;4.63;;;-1.30;99.90;;;;;;5001124;28;20049;-75
2024/01/17 04:03:28;;;;;;;4.05;3.10;;;-1.30;99.90;;;;;;5033389;28;20080;-74
2024/01/17 04:05:53;;;;;;;5.05;4.13;;;-1.30;99.90;;;;;;5020353;28;20045;-74
2024/01/17 04:08:19;;;;;;;6.45;3.63;;;-1.30;99.90;;;;;;4989309;28;20064;-74
2024/01/17 04:10:45;;;;;;;10.50;3.13;;;-1.30;99.90;;;;;;5040380;28;20049;-74
2024/01/17 04:13:10;;;;;;;3.60;2.92;;;-1.30;99.90;;;;;;5006161;28;20672;-74
2024/01/17 04:15:36;;;;;;;5.63;2.83;;;-1.20;99.90;;;;;;5022982;28;20048;-74
2024/01/17 04:18:02;;;;;;;5.32;3.13;;;-1.30;99.90;;;;;;5022422;28;20049;-74
2024/01/17 04:20:27;;;;;;;7.07;4.85;;;-1.40;99.90;;;;;;4989960;28;20081;-75
2024/01/17 04:22:54;;;;;;;3.92;2.97;;;-1.40;99.90;;;;;;5022786;28;20101;-74
2024/01/17 04:25:19;;;;;;;6.57;4.07;;;-1.40;99.90;;;;;;5002887;28;20038;-74
2024/01/17 04:27:45;;;;;;;5.75;3.60;;;-1.30;99.90;;;;;;5023723;28;20067;-74
2024/01/17 04:30:12;;;;;;;4.82;2.90;;;-1.20;99.90;;;;;;5020362;28;20188;-74
2024/01/17 04:32:38;;;;;;;12.18;3.75;;;-1.30;99.90;;;;;;5006361;28;20164;-74
2024/01/17 04:35:04;;;;;;;4.70;3.10;;;-1.30;99.90;;;;;;5001190;28;20068;-74
2024/01/17 04:37:30;;;;;;;12.80;3.42;;;-1.30;99.90;;;;;;5018908;28;20034;-74
2024/01/17 04:39:57;;;;;;;5.72;4.53;;;-1.40;99.90;;;;;;5033912;28;20068;-74
2024/01/17 04:42:23;;;;;;;12.52;4.15;;;-1.30;99.90;;;;;;5033874;28;20076;-74
2024/01/17 04:44:49;;;;;;;14.57;2.80;;;-1.30;99.90;;;;;;5002255;28;20029;-75
2024/01/17 04:47:15;;;;;;;6.25;3.60;;;-1.30;99.90;;;;;;5000819;28;20049;-74
2024/01/17 04:49:42;;;;;;;7.80;3.60;;;-1.30;99.90;;;;;;5022658;28;20531;-74
2024/01/17 04:52:09;;;;;;;6.10;3.67;;;-1.40;99.90;;;;;;5032674;28;20073;-74
2024/01/17 04:54:35;;;;;;;10.43;2.92;;;-1.30;99.90;;;;;;5015634;28;20053;-74
2024/01/17 04:57:01;;;;;;;15.10;4.07;;;-1.30;99.90;;;;;;5017492;28;20045;-74
2024/01/17 04:59:26;;;;;;;6.63;3.17;;;-1.30;99.90;;;;;;5016304;28;20049;-74
2024/01/17 05:01:52;;;;;;;8.70;3.70;;;-1.30;99.90;;;;;;5001843;28;20143;-74
2024/01/17 05:04:18;;;;;;;7.53;3.95;;;-1.30;99.90;;;;;;5032129;28;20041;-74
2024/01/17 05:06:44;;;;;;;14.77;5.20;;;-1.20;99.90;;;;;;5020410;28;20498;-74
2024/01/17 05:09:12;;;;;;;7.75;3.58;;;-1.20;99.90;;;;;;5001899;28;20053;-74
2024/01/17 05:11:38;;;;;;;6.28;3.58;;;-1.20;99.90;;;;;;5015097;28;20054;-74
2024/01/17 05:14:03;;;;;;;5.03;3.15;;;-1.10;99.90;;;;;;5005959;28;20072;-74
2024/01/17 05:16:29;;;;;;;7.30;3.53;;;-1.10;99.90;;;;;;4990335;28;20095;-74
2024/01/17 05:18:55;;;;;;;6.10;2.97;;;-1.10;99.90;;;;;;5022629;28;20046;-74
2024/01/17 05:21:21;;;;;;;10.10;5.35;;;-1.10;99.90;;;;;;5001065;28;20069;-74
2024/01/17 05:23:47;;;;;;;5.20;2.70;;;-1.10;99.90;;;;;;5005709;28;20049;-74
2024/01/17 05:26:12;;;;;;;7.20;3.15;;;-1.10;99.90;;;;;;5000550;28;20572;-74
2024/01/17 05:28:38;;;;;;;4.68;3.05;;;-1.10;99.90;;;;;;4983975;28;20068;-74
2024/01/17 05:31:04;;;;;;;14.45;4.28;;;-1.00;99.90;;;;;;4998557;28;20049;-74
2024/01/17 05:33:30;;;;;;;7.25;3.53;;;-1.00;99.90;;;;;;4982346;28;20717;-74
2024/01/17 05:35:56;;;;;;;3.95;2.83;;;-1.10;99.90;;;;;;5000334;28;20108;-74
2024/01/17 05:38:22;;;;;;;8.43;4.35;;;-1.00;99.90;;;;;;4999320;28;20084;-74
2024/01/17 05:40:47;;;;;;;8.32;4.13;;;-1.10;99.90;;;;;;5014925;28;20050;-74
2024/01/17 05:43:13;;;;;;;10.57;3.90;;;-1.10;99.90;;;;;;4981391;28;20445;-74
2024/01/17 05:45:39;;;;;;;3.13;2.65;;;-1.10;99.90;;;;;;5040010;28;20057;-74
2024/01/17 05:48:05;;;;;;;10.85;3.65;;;-1.10;99.90;;;;;;5001438;28;20045;-74
2024/01/17 05:50:31;;;;;;;5.82;3.17;;;-1.20;99.90;;;;;;5017242;28;20120;-74
2024/01/17 05:52:56;;;;;;;14.60;3.95;;;-1.20;99.90;;;;;;4999725;28;20045;-74
2024/01/17 05:55:22;;;;;;;12.05;3.83;;;-1.30;99.90;;;;;;5015089;28;20046;-74
2024/01/17 05:57:48;;;;;;;9.95;4.75;;;-1.30;99.90;;;;;;5016432;28;20045;-74
2024/01/17 06:00:14;;;;;;;14.90;3.40;;;-1.40;99.90;;;;;;5032061;28;20037;-74
2024/01/17 06:02:41;;;;;;;4.80;2.92;;;-1.40;99.90;;;;;;5017269;28;20104;-74
2024/01/17 06:05:08;;;;;;;6.18;3.30;;;-1.40;99.90;;;;;;5003140;28;20072;-74
2024/01/17 06:07:34;;;;;;;3.85;2.53;;;-1.50;99.90;;;;;;5021368;28;20068;-74
2024/01/17 06:10:00;;;;;;;8.23;3.08;;;-1.60;99.90;;;;;;5022095;28;20038;-74
2024/01/17 06:12:25;;;;;;;16.75;4.55;;;-1.60;99.90;;;;;;5019334;28;20712;-74
2024/01/17 06:14:51;;;;;;;5.43;2.92;;;-1.70;99.90;;;;;;5005555;28;20101;-74
2024/01/17 06:17:17;;;;;;;4.65;3.53;;;-1.70;99.90;;;;;;5020393;28;20121;-74
2024/01/17 06:19:43;;;;;;;3.00;2.67;;;-1.70;99.90;;;;;;5021471;28;20133;-74
2024/01/17 06:22:09;;;;;;;4.30;2.80;;;-1.80;99.90;;;;;;4989070;28;20049;-74
2024/01/17 06:24:35;;;;;;;4.10;3.00;;;-1.80;99.90;;;;;;5036268;28;20045;-74
2024/01/17 06:27:02;;;;;;;1.92;1.73;;;-1.80;99.90;;;;;;5021495;28;20049;-74
2024/01/17 06:29:30;;;;;;;11.57;3.88;;;-1.80;99.90;;;;;;5020485;28;20472;-74
2024/01/17 06:31:56;;;;;;;8.25;4.45;;;-1.80;99.90;;;;;;5021951;28;20049;-74
2024/01/17 06:34:22;;;;;;;4.80;2.38;;;-1.80;99.90;;;;;;5017209;28;20053;-74
2024/01/17 06:36:48;;;;;;;4.68;3.08;;;-1.80;99.90;;;;;;5032211;28;20089;-74
2024/01/17 06:39:16;;;;;;;10.10;4.03;;;-1.90;99.90;;;;;;5016387;28;20519;-74
2024/01/17 06:41:43;;;;;;;12.68;3.25;;;-1.90;99.90;;;;;;5047833;28;20049;-74
2024/01/17 06:44:09;;;;;;;4.45;2.17;;;-2.00;99.90;;;;;;4998965;28;20061;-74
2024/01/17 06:46:36;;;;;;;4.65;4.05;;;-1.90;99.90;;;;;;5027148;28;20034;-75
2024/01/17 06:49:02;;;;;;;4.40;3.15;;;-2.00;99.90;;;;;;5038442;28;20056;-75
2024/01/17 06:51:28;;;;;;;4.47;3.10;;;-1.90;99.90;;;;;;4994203;28;20041;-74
2024/01/17 06:53:53;;;;;;;3.13;2.83;;;-2.00;99.90;;;;;;5015185;28;20037;-74
2024/01/17 06:56:19;;;;;;;8.48;3.72;;;-2.00;99.90;;;;;;4997413;28;20060;-74
2024/01/17 06:58:45;;;;;;;5.43;3.95;;;-2.10;99.90;;;;;;5015982;28;20362;-75
2024/01/17 07:01:10;;;;;;;2.75;2.08;;;-2.10;99.90;;;;;;5017911;28;20440;-74
2024/01/17 07:03:36;;;;;;;7.82;4.28;;;-2.00;99.90;;;;;;5000697;28;20042;-74
2024/01/17 07:06:04;;;;;;;6.82;3.28;;;-2.10;99.90;;;;;;4999126;28;20104;-75
2024/01/17 07:08:30;;;;;;;12.57;2.83;;;-2.10;99.90;;;;;;5029540;28;20136;-75
2024/01/17 07:10:56;;;;;;;2.83;1.92;;;-2.10;99.90;;;;;;5016635;28;20150;-74
2024/01/17 07:13:21;;;;;;;8.70;3.92;;;-2.10;99.90;;;;;;4986173;28;20109;-75
2024/01/17 07:15:47;;;;;;;10.60;3.50;;;-2.10;99.90;;;;;;5001741;28;20060;-75
2024/01/17 07:18:13;;;;;;;1.65;1.17;;;-2.10;99.90;;;;;;5017964;28;20084;-75
2024/01/17 07:20:39;;;;;;;6.97;2.00;;;-2.10;99.90;;;;;;5000111;28;20040;-75
2024/01/17 07:23:07;;;;;;;3.55;2.97;;;-2.20;99.90;;;;;;5002471;28;20143;-75
2024/01/17 07:25:32;;;;;;;4.50;3.22;;;-2.20;99.90;;;;;;5031002;28;20534;-75
2024/01/17 07:27:58;;;;;;;5.50;3.45;;;-2.20;99.90;;;;;;5024397;28;20071;-75
2024/01/17 07:30:24;;;;;;;6.97;3.78;;;-2.20;99.90;;;;;;5007495;28;20049;-75
2024/01/17 07:32:49;;;;;;;4.05;3.10;;;-2.20;99.90;;;;;;5007507;28;20049;-75
2024/01/17 07:35:15;;;;;;;8.18;3.30;;;-2.20;99.90;;;;;;5024840;28;20125;-75
2024/01/17 07:37:41;;;;;;;6.28;3.15;;;-2.30;99.90;;;;;;5017255;28;20547;-75
2024/01/17 07:40:09;;;;;;;12.45;4.53;;;-2.30;99.90;;;;;;5024576;28;20044;-75
2024/01/17 07:42:34;;;;;;;5.65;3.20;;;-2.30;99.90;;;;;;5019438;28;20132;-75
2024/01/17 07:45:00;;;;;;;18.17;2.67;;;-2.30;99.90;;;;;;5004438;28;20044;-75
2024/01/17 07:47:26;;;;;;;19.35;3.50;;;-2.30;99.90;;;;;;4999217;28;20045;-74
2024/01/17 07:49:52;;;;;;;7.80;3.17;;;-2.30;99.90;;;;;;4999141;28;20575;-74
2024/01/17 07:52:17;;;;;;;5.43;3.60;;;-2.30;99.90;;;;;;5042072;28;20097;-74
2024/01/17 07:54:43;;;;;;;2.75;2.42;;;-2.30;99.90;;;;;;5006982;28;20037;-74
2024/01/17 07:57:10;;;;;;;14.85;2.53;;;-2.30;99.90;;;;;;5024587;28;20045;-74
2024/01/17 07:59:36;;;;;;;3.88;2.83;;;-2.30;99.90;;;;;;4994274;28;20471;-73
2024/01/17 08:02:03;;;;;;;5.15;3.45;;;-2.30;99.90;;;;;;5002779;28;20046;-73
2024/01/17 08:04:28;;;;;;;6.15;3.53;;;-2.30;99.90;;;;;;5001901;28;20049;-74
2024/01/17 08:06:54;;;;;;;7.45;3.17;;;-2.30;99.90;;;;;;5002373;28;20033;-73
2024/01/17 08:09:24;;;;;;;9.27;2.75;;;-2.30;99.90;;;;;;5001227;28;20075;-74
2024/01/17 08:11:58;;;;;;;3.03;2.83;;;-2.20;99.90;;;;;;4998564;28;20451;-74
2024/01/17 08:14:24;;;;;;;5.13;2.60;;;-2.20;99.90;;;;;;5003560;28;20072;-74
2024/01/17 08:16:53;;;;;;;5.20;2.70;;;-2.20;99.90;;;;;;5032244;28;20056;-73
2024/01/17 08:19:19;;;;;;;4.30;3.15;;;-2.20;99.90;;;;;;5002750;28;20132;-74
2024/01/17 08:21:49;;;;;;;7.80;3.78;;;-2.20;99.90;;;;;;4990412;28;20052;-73
2024/01/17 08:24:15;;;;;;;11.25;3.25;;;-2.00;99.90;;;;;;5039411;28;20052;-74
2024/01/17 08:26:41;;;;;;;5.93;2.85;;;-2.10;99.90;;;;;;5007422;28;20053;-74
2024/01/17 08:29:07;;;;;;;6.20;2.67;;;-2.00;99.90;;;;;;5013231;28;20041;-76
2024/01/17 08:31:35;;;;;;;15.25;4.40;;;-2.00;99.90;;;;;;5017043;28;20046;-73
2024/01/17 08:34:00;;;;;;;3.97;2.35;;;-2.00;99.90;;;;;;4999211;28;20053;-74
2024/01/17 08:36:30;;;;;;;5.72;3.60;;;-1.90;99.90;;;;;;5023761;28;20552;-73
2024/01/17 08:38:57;;;;;;;7.10;2.85;;;-1.90;99.90;;;;;;5022519;28;20057;-73
2024/01/17 08:41:22;;;;;;;3.10;2.35;;;-1.90;99.90;;;;;;5039279;28;20033;-73
2024/01/17 08:43:48;;;;;;;3.38;2.10;;;-1.90;99.90;;;;;;5023265;28;20064;-73
2024/01/17 08:46:14;;;;;;;9.48;3.00;;;-1.80;99.90;;;;;;5006146;28;20080;-73
2024/01/17 08:48:41;;;;;;;6.10;3.42;;;-1.70;99.90;;;;;;5038720;28;20064;-73
2024/01/17 08:51:08;;;;;;;11.32;3.50;;;-1.70;99.90;;;;;;5047661;28;20105;-74
2024/01/17 08:53:37;;;;;;;4.45;2.50;;;-1.70;99.90;;;;;;5005470;28;20080;-74
2024/01/17 08:56:05;;;;;;;5.95;2.28;;;-1.70;99.90;;;;;;5023403;28;20052;-74
2024/01/17 08:58:34;;;;;;;5.70;2.60;;;-1.70;99.90;;;;;;5039413;28;20048;-74
2024/01/17 09:01:01;;;;;;;5.57;3.35;;;-1.60;99.90;;;;;;5039311;28;20120;-74
2024/01/17 09:03:29;;;;;;;4.53;2.88;;;-1.60;99.90;;;;;;5038418;28;20100;-74
2024/01/17 09:05:55;;;;;;;18.20;3.05;;;-1.50;99.90;;;;;;5028214;28;20050;-74
2024/01/17 09:08:20;;;;;;;3.63;3.00;;;-1.50;99.90;;;;;;4994278;28;20124;-75
2024/01/17 09:10:46;;;;;;;9.93;2.63;;;-1.50;99.90;;;;;;5006212;28;20053;-74
2024/01/17 09:13:13;;;;;;;3.40;2.75;;;-1.40;99.90;;;;;;5039178;28;20033;-74
2024/01/17 09:15:39;;;;;;;5.90;2.47;;;-1.40;99.90;;;;;;5006152;28;20465;-74
2024/01/17 09:18:05;;;;;;;4.80;3.03;;;-1.30;99.90;;;;;;5022868;28;20512;-74
2024/01/17 09:20:31;;;;;;;6.72;2.97;;;-1.30;99.90;;;;;;5021618;28;20034;-74
2024/01/17 09:22:57;;;;;;;8.10;3.88;;;-1.30;99.90;;;;;;5006143;28;20072;-74
2024/01/17 09:25:23;;;;;;;5.00;2.95;;;-1.20;99.90;;;;;;4988578;28;20049;-74
2024/01/17 09:27:49;;;;;;;3.53;1.70;;;-1.10;99.90;;;;;;5006628;28;20045;-74
2024/01/17 09:30:15;;;;;;;6.47;3.13;;;-1.10;99.90;;;;;;5021668;28;20052;-74
2024/01/17 09:32:41;;;;;;;5.88;3.83;;;-1.10;99.90;;;;;;5021769;28;20052;-74
2024/01/17 09:35:10;;;;;;;2.42;2.20;;;-1.00;99.90;;;;;;5021532;28;20536;-74
2024/01/17 09:37:36;;;;;;;6.80;4.13;;;-1.00;99.90;;;;;;5021881;28;20045;-74
2024/01/17 09:40:05;;;;;;;11.00;2.63;;;-1.00;99.90;;;;;;5022763;28;20088;-74
2024/01/17 09:42:33;;;;;;;5.78;2.75;;;-1.00;99.90;;;;;;5002093;28;20079;-74
2024/01/17 09:45:03;;;;;;;3.33;2.40;;;-0.90;99.90;;;;;;5011300;28;20041;-74
2024/01/17 09:47:32;;;;;;;3.38;3.03;;;-0.80;99.90;;;;;;5021301;28;20053;-74
2024/01/17 09:49:58;;;;;;;5.03;3.03;;;-0.80;99.90;;;;;;5038570;28;20049;-74
2024/01/17 09:52:24;;;;;;;5.97;2.85;;;-0.70;99.90;;;;;;5005815;28;20572;-73
2024/01/17 09:54:52;;;;;;;4.47;2.70;;;-0.60;99.90;;;;;;5020616;28;20095;-74
2024/01/17 09:57:25;;;;;;;6.72;3.35;;;-0.50;99.90;;;;;;5006334;28;20592;-74
2024/01/17 09:59:59;;;;;;;8.52;5.00;;;-0.50;99.90;;;;;;5020462;28;20045;-74
2024/01/17 10:02:27;;;;;;;10.27;3.60;;;-0.40;99.90;;;;;;5021575;28;20045;-74
2024/01/17 10:04:55;;;;;;;22.13;4.10;;;-0.40;99.90;;;;;;5021059;28;20042;-74
2024/01/17 10:07:20;;;;;;;5.75;3.25;;;-0.40;99.90;;;;;;5021444;28;20044;-74
2024/01/17 10:09:46;;;;;;;8.77;3.42;;;-0.40;99.90;;;;;;5021801;28;20042;-74
2024/01/17 10:12:19;;;;;;;5.90;2.67;;;-0.40;99.90;;;;;;5037070;28;20041;-74
2024/01/17 10:14:45;;;;;;;5.75;2.80;;;-0.40;99.90;;;;;;5022213;28;20085;-74
2024/01/17 10:17:10;;;;;;;6.55;3.63;;;-0.40;99.90;;;;;;5004092;28;20034;-74
2024/01/17 10:19:36;;;;;;;5.85;3.15;;;-0.40;99.90;;;;;;5005485;28;20037;-74
2024/01/17 10:22:02;;;;;;;7.43;3.70;;;-0.40;99.90;;;;;;5021483;28;20077;-74
2024/01/17 10:24:32;;;;;;;7.28;4.30;;;-0.30;99.90;;;;;;5020853;28;20058;-74
2024/01/17 10:27:00;;;;;;;6.95;3.45;;;-0.30;99.90;;;;;;5021854;28;20155;-75
2024/01/17 10:29:26;;;;;;;7.18;3.40;;;-0.30;99.90;;;;;;5020201;28;20034;-74
2024/01/17 10:31:59;;;;;;;5.53;2.88;;;-0.20;99.90;;;;;;5005693;28;20081;-74
2024/01/17 10:34:29;;;;;;;9.95;3.40;;;-0.30;99.90;;;;;;5020906;28;20068;-74
2024/01/17 10:36:55;;;;;;;6.25;3.22;;;-0.30;99.90;;;;;;5037583;28;20065;-74
2024/01/17 10:39:22;;;;;;;6.07;3.47;;;-0.30;99.90;;;;;;5037502;28;20105;-75
2024/01/17 10:41:58;;;;;;;4.38;2.75;;;-0.30;99.90;;;;;;5020790;28;20097;-75
2024/01/17 10:44:25;;;;;;;6.20;3.15;;;-0.30;99.90;;;;;;5006247;28;20046;-74
2024/01/17 10:46:51;;;;;;;6.57;3.42;;;-0.20;99.90;;;;;;5004929;28;20599;-75
2024/01/17 10:49:18;;;;;;;5.65;3.88;;;-0.20;99.90;;;;;;5025888;28;20095;-75
2024/01/17 10:51:55;;;;;;;10.85;3.83;;;-0.20;99.90;;;;;;5005389;28;20056;-75
2024/01/17 10:54:26;;;;;;;4.43;3.08;;;-0.10;99.90;;;;;;5037345;28;20059;-75
2024/01/17 10:56:54;;;;;;;7.38;3.63;;;-0.10;99.90;;;;;;5025627;28;20046;-75
2024/01/17 10:59:25;;;;;;;9.80;3.53;;;-0.10;99.90;;;;;;5023566;28;20048;-75
2024/01/17 11:01:53;;;;;;;12.27;3.67;;;0.00;99.90;;;;;;5009619;28;20045;-74
2024/01/17 11:04:40;;;;;;;13.20;3.60;;;0.00;99.90;;;;;;5024323;28;20037;-75
2024/01/17 11:07:06;;;;;;;7.00;3.10;;;0.10;99.90;;;;;;5024800;28;20839;-74
2024/01/17 11:09:34;;;;;;;6.00;3.15;;;0.10;99.90;;;;;;5024835;28;20053;-75
2024/01/17 11:12:03;;;;;;;5.03;3.03;;;0.20;99.90;;;;;;5012353;28;20052;-75
2024/01/17 11:14:31;;;;;;;7.75;3.17;;;0.20;99.90;;;;;;5042140;28;20049;-74
2024/01/17 11:17:03;;;;;;;5.82;3.22;;;0.30;99.90;;;;;;5007449;28;20083;-75
2024/01/17 11:19:32;;;;;;;2.90;2.22;;;0.30;99.90;;;;;;5025051;28;20112;-75
2024/01/17 11:22:02;;;;;;;7.20;3.40;;;0.30;99.90;;;;;;5023674;28;20038;-75
2024/01/17 11:24:46;;;;;;;9.75;3.95;;;0.30;99.90;;;;;;5008220;28;20076;-75
2024/01/17 11:27:16;;;;;;;4.70;2.53;;;0.40;99.90;;;;;;5025558;28;20052;-75
2024/01/17 11:30:16;;;;;;;5.90;3.30;;;0.40;99.90;;;;;;5023610;28;20041;-75
2024/01/17 11:33:01;;;;;;;3.88;3.00;;;0.40;99.90;;;;;;5000579;28;20053;-75
2024/01/17 11:35:46;;;;;;;7.88;2.72;;;0.50;99.90;;;;;;5041739;28;20503;-75
2024/01/17 11:38:24;;;;;;;3.53;2.40;;;0.50;99.90;;;;;;5023541;28;20124;-75
2024/01/17 11:40:52;;;;;;;10.18;3.28;;;0.50;99.90;;;;;;5024703;28;20041;-75
2024/01/17 11:43:20;;;;;;;4.45;2.65;;;0.50;99.90;;;;;;5040264;28;20061;-75
2024/01/17 11:45:50;;;;;;;22.83;2.88;;;0.50;99.90;;;;;;5007976;28;20093;-75
2024/01/17 11:48:19;;;;;;;7.65;3.65;;;0.50;99.90;;;;;;5024879;28;20037;-75
2024/01/17 11:51:01;;;;;;;7.15;3.42;;;0.60;99.90;;;;;;5023123;28;20041;-76
2024/01/17 11:53:27;;;;;;;;;;;0.60;99.90;;;;;;5025256;28;20041;-76
2024/01/17 11:55:55;;;;;;;7.32;3.38;;;0.60;99.90;;;;;;5023246;28;19940;-75
2024/01/17 11:58:22;;;;;;;6.97;2.85;;;0.60;99.90;;;;;;5023110;28;20037;-76
2024/01/17 12:00:52;;;;;;;5.80;3.15;;;0.60;99.90;;;;;;5024253;28;20041;-76
2024/01/17 12:03:30;;;;;;;5.85;3.10;;;0.60;99.90;;;;;;5022630;28;20045;-76
2024/01/17 12:05:56;;;;;;;5.30;3.08;;;0.60;99.90;;;;;;5025018;28;20045;-76
2024/01/17 12:08:23;;;;;;;6.90;2.83;;;0.60;99.90;;;;;;5006448;28;20065;-76
2024/01/17 12:10:56;;;;;;;5.25;3.03;;;0.60;99.90;;;;;;5007375;28;20053;-76
2024/01/17 12:13:23;;;;;;;6.40;3.38;;;0.60;99.90;;;;;;4999226;28;20393;-77
2024/01/17 12:15:53;;;;;;;8.63;3.35;;;0.70;99.90;;;;;;5033527;28;20041;-77
2024/01/17 12:18:23;;;;;;;6.22;3.50;;;0.70;99.90;;;;;;5015245;28;20107;-77
2024/01/17 12:20:50;;;;;;;7.40;3.42;;;0.70;99.90;;;;;;5022345;28;20478;-77
2024/01/17 12:23:18;;;;;;;5.43;3.15;;;0.70;99.90;;;;;;5002174;28;20130;-77
2024/01/17 12:25:44;;;;;;;5.32;3.40;;;0.60;99.90;;;;;;5006328;28;20056;-77
2024/01/17 12:28:09;;;;;;;4.85;3.00;;;0.70;99.90;;;;;;5023573;28;20120;-77
2024/01/17 12:30:35;;;;;;;10.88;3.47;;;0.70;99.90;;;;;;5023261;28;20052;-77
2024/01/17 12:33:01;;;;;;;15.02;3.35;;;0.70;99.90;;;;;;5005819;28;20049;-77
2024/01/17 12:35:27;;;;;;;9.88;3.67;;;0.70;99.90;;;;;;5040635;28;20121;-77
2024/01/17 12:37:53;;;;;;;7.05;3.63;;;0.60;99.90;;;;;;5006044;28;20045;-77
2024/01/17 12:40:19;;;;;;;5.68;3.78;;;0.70;99.90;;;;;;5007753;28;20485;-77
2024/01/17 12:42:48;;;;;;;5.05;3.22;;;0.70;99.90;;;;;;5022273;28;20041;-77
2024/01/17 12:45:15;;;;;;;5.78;3.15;;;0.70;99.90;;;;;;5017196;28;20073;-77